createdAt,value
2023-07-09T00:00:57.601Z,63.90
2023-07-09T00:03:24.440Z,64.10
2023-07-09T00:05:51.365Z,64.50
2023-07-09T00:08:30.164Z,64.70
2023-07-09T00:10:58.247Z,64.40
2023-07-09T00:13:26.675Z,64.30
2023-07-09T00:15:56.515Z,64.30
2023-07-09T00:18:23.257Z,64.10
2023-07-09T00:20:50.006Z,64.20
2023-07-09T00:23:20.466Z,64.30
2023-07-09T00:25:48.586Z,64.60
2023-07-09T00:28:16.567Z,64.20
2023-07-09T00:30:43.331Z,64.10
2023-07-09T00:33:15.421Z,64.50
2023-07-09T00:35:47.450Z,64.40
2023-07-09T00:38:16.364Z,64.80
2023-07-09T00:40:49.846Z,64.60
2023-07-09T00:43:17.840Z,64.40
2023-07-09T00:45:44.654Z,64.80
2023-07-09T00:48:17.714Z,65.10
2023-07-09T00:50:51.181Z,65.40
2023-07-09T00:53:30.491Z,65.70
2023-07-09T00:56:10.919Z,65.60
2023-07-09T00:58:40.455Z,65.60
2023-07-09T01:01:13.053Z,65.70
2023-07-09T01:03:48.615Z,65.40
2023-07-09T01:06:19.947Z,65.60
2023-07-09T01:08:54.291Z,65.50
2023-07-09T01:11:23.200Z,65.70
2023-07-09T01:13:55.950Z,65.40
2023-07-09T01:16:25.331Z,65.30
2023-07-09T01:18:52.934Z,65.50
2023-07-09T01:21:20.062Z,65.70
2023-07-09T01:23:49.511Z,65.80
2023-07-09T01:26:20.035Z,65.90
2023-07-09T01:28:47.736Z,66.10
2023-07-09T01:31:16.274Z,65.20
2023-07-09T01:33:45.670Z,65.00
2023-07-09T01:36:19.129Z,65.70
2023-07-09T01:38:45.999Z,65.80
2023-07-09T01:41:15.161Z,65.80
2023-07-09T01:43:43.411Z,65.70
2023-07-09T01:46:13.410Z,65.60
2023-07-09T01:48:43.830Z,65.70
2023-07-09T01:51:12.612Z,65.80
2023-07-09T01:53:40.513Z,65.90
2023-07-09T01:56:08.809Z,65.80
2023-07-09T01:58:35.887Z,66.70
2023-07-09T02:01:03.041Z,67.40
2023-07-09T02:03:29.996Z,67.40
2023-07-09T02:05:58.777Z,68.00
2023-07-09T02:08:25.608Z,68.60
2023-07-09T02:10:52.789Z,68.80
2023-07-09T02:13:19.597Z,68.80
2023-07-09T02:15:46.569Z,68.10
2023-07-09T02:18:14.686Z,66.90
2023-07-09T02:20:41.442Z,66.90
2023-07-09T02:23:09.413Z,66.70
2023-07-09T02:25:36.358Z,66.50
2023-07-09T02:28:03.265Z,66.90
2023-07-09T02:30:30.095Z,67.00
2023-07-09T02:32:57.055Z,66.70
2023-07-09T02:35:24.333Z,66.20
2023-07-09T02:37:51.255Z,66.70
2023-07-09T02:40:18.062Z,67.20
2023-07-09T02:42:44.933Z,65.80
2023-07-09T02:45:13.532Z,65.30
2023-07-09T02:47:43.035Z,65.50
2023-07-09T02:50:11.071Z,66.40
2023-07-09T02:52:37.832Z,67.00
2023-07-09T02:55:05.111Z,67.00
2023-07-09T02:57:31.926Z,67.50
2023-07-09T02:59:58.660Z,67.90
2023-07-09T03:02:26.010Z,68.10
2023-07-09T03:04:52.857Z,68.20
2023-07-09T03:07:19.557Z,68.40
2023-07-09T03:09:46.349Z,68.40
2023-07-09T03:12:13.058Z,68.30
2023-07-09T03:14:39.794Z,68.10
2023-07-09T03:17:06.612Z,67.40
2023-07-09T03:19:36.061Z,67.40
2023-07-09T03:22:04.262Z,67.80
2023-07-09T03:24:31.020Z,68.00
2023-07-09T03:26:58.424Z,67.50
2023-07-09T03:29:25.185Z,67.60
2023-07-09T03:31:52.049Z,67.20
2023-07-09T03:34:18.845Z,67.70
2023-07-09T03:36:46.385Z,68.00
2023-07-09T03:39:13.183Z,67.60
2023-07-09T03:41:39.929Z,67.40
2023-07-09T03:44:06.688Z,67.10
2023-07-09T03:46:33.475Z,67.70
2023-07-09T03:49:01.265Z,68.00
2023-07-09T03:51:28.294Z,68.10
2023-07-09T03:53:55.037Z,67.90
2023-07-09T03:56:21.836Z,67.60
2023-07-09T03:58:48.617Z,67.80
2023-07-09T04:01:17.511Z,67.30
2023-07-09T04:03:44.676Z,67.40
2023-07-09T04:06:11.582Z,67.50
2023-07-09T04:08:38.287Z,68.00
2023-07-09T04:11:06.187Z,67.40
2023-07-09T04:13:33.921Z,67.70
2023-07-09T04:16:01.285Z,67.10
2023-07-09T04:18:28.403Z,67.70
2023-07-09T04:20:55.184Z,68.10
2023-07-09T04:23:22.258Z,68.00
2023-07-09T04:25:49.047Z,68.00
2023-07-09T04:28:16.553Z,67.80
2023-07-09T04:30:53.158Z,67.80
2023-07-09T04:33:21.397Z,67.30
2023-07-09T04:35:49.374Z,67.50
2023-07-09T04:38:17.280Z,67.90
2023-07-09T04:40:44.288Z,68.30
2023-07-09T04:43:11.171Z,68.10
2023-07-09T04:45:37.958Z,68.00
2023-07-09T04:48:05.123Z,68.40
2023-07-09T04:50:31.898Z,68.30
2023-07-09T04:53:00.197Z,67.60
2023-07-09T04:55:27.772Z,67.30
2023-07-09T04:57:54.577Z,66.70
2023-07-09T05:00:21.431Z,66.50
2023-07-09T05:02:48.374Z,66.00
2023-07-09T05:05:15.620Z,66.20
2023-07-09T05:07:42.764Z,66.50
2023-07-09T05:10:09.898Z,66.50
2023-07-09T05:12:36.662Z,66.40
2023-07-09T05:15:03.594Z,66.10
2023-07-09T05:17:30.382Z,66.00
2023-07-09T05:19:57.124Z,65.90
2023-07-09T05:22:23.846Z,65.90
2023-07-09T05:24:50.572Z,65.50
2023-07-09T05:27:17.314Z,65.40
2023-07-09T05:29:44.068Z,64.80
2023-07-09T05:32:10.823Z,64.70
2023-07-09T05:34:37.546Z,64.60
2023-07-09T05:37:04.606Z,64.20
2023-07-09T05:39:31.296Z,64.30
2023-07-09T05:41:58.018Z,64.10
2023-07-09T05:44:24.762Z,63.60
2023-07-09T05:46:51.573Z,64.30
2023-07-09T05:49:19.208Z,64.00
2023-07-09T05:51:45.915Z,63.90
2023-07-09T05:54:13.225Z,63.70
2023-07-09T05:56:40.385Z,63.50
2023-07-09T05:59:07.112Z,63.00
2023-07-09T06:01:33.880Z,63.10
2023-07-09T06:04:00.810Z,63.00
2023-07-09T06:06:28.289Z,63.30
2023-07-09T06:08:55.130Z,63.30
2023-07-09T06:11:21.901Z,62.60
2023-07-09T06:13:51.355Z,61.80
2023-07-09T06:16:18.664Z,61.80
2023-07-09T06:18:45.456Z,61.80
2023-07-09T06:21:13.838Z,61.60
2023-07-09T06:23:40.596Z,61.70
2023-07-09T06:26:07.325Z,61.80
2023-07-09T06:28:34.401Z,61.40
2023-07-09T06:31:01.426Z,61.20
2023-07-09T06:33:29.139Z,60.50
2023-07-09T06:35:58.895Z,60.10
2023-07-09T06:38:26.784Z,59.90
2023-07-09T06:40:53.814Z,59.90
2023-07-09T06:43:21.494Z,60.30
2023-07-09T06:45:58.224Z,60.00
2023-07-09T06:48:27.482Z,59.50
2023-07-09T06:50:55.984Z,58.70
2023-07-09T06:53:23.365Z,58.90
2023-07-09T06:55:50.922Z,59.10
2023-07-09T06:58:18.437Z,58.20
2023-07-09T07:00:46.066Z,58.20
2023-07-09T07:03:13.341Z,58.20
2023-07-09T07:05:45.754Z,58.80
2023-07-09T07:08:14.627Z,58.10
2023-07-09T07:10:43.125Z,57.20
2023-07-09T07:13:11.659Z,56.30
2023-07-09T07:15:39.224Z,56.00
2023-07-09T07:18:07.026Z,55.90
2023-07-09T07:20:34.332Z,56.60
2023-07-09T07:23:01.474Z,56.80
2023-07-09T07:25:28.197Z,55.40
2023-07-09T07:27:55.340Z,54.70
2023-07-09T07:30:24.553Z,55.10
2023-07-09T07:32:52.611Z,54.30
2023-07-09T07:35:20.398Z,53.30
2023-07-09T07:37:47.406Z,53.30
2023-07-09T07:40:14.168Z,52.20
2023-07-09T07:42:41.070Z,50.30
2023-07-09T07:45:08.926Z,50.20
2023-07-09T07:47:38.055Z,50.00
2023-07-09T07:50:06.441Z,47.60
2023-07-09T07:52:33.948Z,47.10
2023-07-09T07:55:01.331Z,46.80
2023-07-09T07:57:28.241Z,46.10
2023-07-09T07:59:54.942Z,46.00
2023-07-09T08:02:22.368Z,47.10
2023-07-09T08:04:49.239Z,47.80
2023-07-09T08:07:16.021Z,47.40
2023-07-09T08:09:42.771Z,48.00
2023-07-09T08:12:15.702Z,46.60
2023-07-09T08:14:45.379Z,47.10
2023-07-09T08:17:12.254Z,46.00
2023-07-09T08:19:51.021Z,46.80
2023-07-09T08:22:18.222Z,46.50
2023-07-09T08:24:44.925Z,46.80
2023-07-09T08:27:11.672Z,45.30
2023-07-09T08:29:38.521Z,45.20
2023-07-09T08:32:05.891Z,44.00
2023-07-09T08:34:32.765Z,44.60
2023-07-09T08:36:59.673Z,46.20
2023-07-09T08:39:26.790Z,45.10
2023-07-09T08:42:04.004Z,43.90
2023-07-09T08:44:57.131Z,42.60
2023-07-09T08:47:37.712Z,43.50
2023-07-09T08:50:20.741Z,44.00
2023-07-09T08:52:50.855Z,42.30
2023-07-09T08:55:22.846Z,42.10
2023-07-09T08:57:54.760Z,40.30
2023-07-09T09:00:53.740Z,41.30
2023-07-09T09:03:36.855Z,39.30
2023-07-09T09:06:03.790Z,41.60
2023-07-09T09:08:42.339Z,39.90
2023-07-09T09:11:14.404Z,40.50
2023-07-09T09:13:42.481Z,40.40
2023-07-09T09:16:25.645Z,38.80
2023-07-09T09:18:57.068Z,37.90
2023-07-09T09:21:33.648Z,37.70
2023-07-09T09:24:20.456Z,36.90
2023-07-09T09:26:49.652Z,37.20
2023-07-09T09:29:17.133Z,38.50
2023-07-09T09:31:57.574Z,37.40
2023-07-09T09:34:30.042Z,37.00
2023-07-09T09:36:59.000Z,37.80
2023-07-09T09:39:26.898Z,37.90
2023-07-09T09:41:58.637Z,37.60
2023-07-09T09:44:29.090Z,39.50
2023-07-09T09:47:00.884Z,38.70
2023-07-09T09:49:29.162Z,38.30
2023-07-09T09:51:58.703Z,38.80
2023-07-09T09:54:31.809Z,36.30
2023-07-09T09:56:58.544Z,37.30
2023-07-09T09:59:37.185Z,36.90
2023-07-09T10:02:19.645Z,36.20
2023-07-09T10:04:47.436Z,33.40
2023-07-09T10:07:28.178Z,33.80
2023-07-09T10:09:56.158Z,34.40
2023-07-09T10:12:37.708Z,33.50
2023-07-09T10:15:27.840Z,34.10
2023-07-09T10:17:56.425Z,33.90
2023-07-09T10:20:36.244Z,34.50
2023-07-09T10:23:23.230Z,34.70
2023-07-09T10:25:54.430Z,34.70
2023-07-09T10:28:33.087Z,34.80
2023-07-09T10:31:18.540Z,34.90
2023-07-09T10:34:00.260Z,35.30
2023-07-09T10:36:54.559Z,36.10
2023-07-09T10:39:28.570Z,35.90
2023-07-09T10:42:00.511Z,34.70
2023-07-09T10:44:41.011Z,34.60
2023-07-09T10:47:35.462Z,34.50
2023-07-09T10:50:04.944Z,33.90
2023-07-09T10:52:37.376Z,34.10
2023-07-09T10:55:15.041Z,35.20
2023-07-09T10:57:57.655Z,33.90
2023-07-09T11:00:34.785Z,34.00
2023-07-09T11:03:07.071Z,33.10
2023-07-09T11:05:34.836Z,31.70
2023-07-09T11:08:06.938Z,31.70
2023-07-09T11:10:36.563Z,32.60
2023-07-09T11:13:17.839Z,32.50
2023-07-09T11:15:49.445Z,32.90
2023-07-09T11:18:23.244Z,33.00
2023-07-09T11:21:06.925Z,33.00
2023-07-09T11:23:53.031Z,34.00
2023-07-09T11:26:29.922Z,33.90
2023-07-09T11:29:08.328Z,33.80
2023-07-09T11:31:40.424Z,33.20
2023-07-09T11:34:11.311Z,33.40
2023-07-09T11:36:49.421Z,32.30
2023-07-09T11:39:28.232Z,32.80
2023-07-09T11:41:55.093Z,33.20
2023-07-09T11:44:32.780Z,33.20
2023-07-09T11:47:26.317Z,33.00
2023-07-09T11:50:05.353Z,32.20
2023-07-09T11:52:38.447Z,32.40
2023-07-09T11:55:22.561Z,33.00
2023-07-09T11:57:58.025Z,32.90
2023-07-09T12:00:27.229Z,31.90
2023-07-09T12:02:54.104Z,32.70
2023-07-09T12:05:26.062Z,32.60
2023-07-09T12:07:52.739Z,32.60
2023-07-09T12:10:27.338Z,32.00
2023-07-09T12:12:59.069Z,31.90
2023-07-09T12:15:29.571Z,31.20
2023-07-09T12:18:01.516Z,31.80
2023-07-09T12:20:32.524Z,31.70
2023-07-09T12:22:59.795Z,32.30
2023-07-09T12:25:30.339Z,31.60
2023-07-09T12:27:59.566Z,31.20
2023-07-09T12:30:26.426Z,32.30
2023-07-09T12:32:53.486Z,31.60
2023-07-09T12:35:21.262Z,32.00
2023-07-09T12:37:51.317Z,31.60
2023-07-09T12:40:23.258Z,31.10
2023-07-09T12:42:50.072Z,31.50
2023-07-09T12:45:19.797Z,31.70
2023-07-09T12:47:48.634Z,31.50
2023-07-09T12:50:36.346Z,31.50
2023-07-09T12:53:19.655Z,30.70
2023-07-09T12:55:49.069Z,30.70
2023-07-09T12:58:28.671Z,30.20
2023-07-09T13:00:57.077Z,30.80
2023-07-09T13:03:32.612Z,29.80
2023-07-09T13:06:05.356Z,29.60
2023-07-09T13:08:41.325Z,29.70
2023-07-09T13:11:19.714Z,29.50
2023-07-09T13:14:00.836Z,29.80
2023-07-09T13:16:27.703Z,28.70
2023-07-09T13:18:54.779Z,29.80
2023-07-09T13:21:23.226Z,28.90
2023-07-09T13:23:50.537Z,29.60
2023-07-09T13:26:17.364Z,29.30
2023-07-09T13:28:46.553Z,30.00
2023-07-09T13:31:18.974Z,28.80
2023-07-09T13:33:54.038Z,29.70
2023-07-09T13:36:20.826Z,29.20
2023-07-09T13:38:47.604Z,27.80
2023-07-09T13:41:17.882Z,28.20
2023-07-09T13:43:47.519Z,27.70
2023-07-09T13:46:14.857Z,27.80
2023-07-09T13:48:44.211Z,28.20
2023-07-09T13:51:23.047Z,28.60
2023-07-09T13:53:52.365Z,28.40
2023-07-09T13:56:19.212Z,28.20
2023-07-09T13:58:46.074Z,28.30
2023-07-09T14:01:21.263Z,27.70
2023-07-09T14:03:48.522Z,27.70
2023-07-09T14:06:17.734Z,27.40
2023-07-09T14:08:44.907Z,27.60
2023-07-09T14:11:13.539Z,27.70
2023-07-09T14:13:41.190Z,27.70
2023-07-09T14:16:12.722Z,27.90
2023-07-09T14:18:39.821Z,27.70
2023-07-09T14:21:27.388Z,28.60
2023-07-09T14:23:54.860Z,27.10
2023-07-09T14:26:21.651Z,27.70
2023-07-09T14:28:48.460Z,27.00
2023-07-09T14:31:22.745Z,27.10
2023-07-09T14:33:49.940Z,27.10
2023-07-09T14:36:16.757Z,26.40
2023-07-09T14:38:43.941Z,26.20
2023-07-09T14:41:23.553Z,26.60
2023-07-09T14:43:50.447Z,26.60
2023-07-09T14:46:17.348Z,26.80
2023-07-09T14:48:44.159Z,27.80
2023-07-09T14:51:16.906Z,27.70
2023-07-09T14:53:45.045Z,27.10
2023-07-09T14:56:14.678Z,27.40
2023-07-09T14:58:41.620Z,27.10
2023-07-09T15:01:16.123Z,25.80
2023-07-09T15:03:43.213Z,25.40
2023-07-09T15:06:10.344Z,25.50
2023-07-09T15:08:37.895Z,26.80
2023-07-09T15:11:04.870Z,25.70
2023-07-09T15:13:34.767Z,25.50
2023-07-09T15:16:03.450Z,25.90
2023-07-09T15:18:30.577Z,26.30
2023-07-09T15:20:59.556Z,25.60
2023-07-09T15:23:28.006Z,25.40
2023-07-09T15:25:55.284Z,25.60
2023-07-09T15:28:22.972Z,25.60
2023-07-09T15:30:49.825Z,25.40
2023-07-09T15:33:19.464Z,26.00
2023-07-09T15:35:48.535Z,25.90
2023-07-09T15:38:21.629Z,26.90
2023-07-09T15:40:49.719Z,26.60
2023-07-09T15:43:17.133Z,26.40
2023-07-09T15:45:47.536Z,26.30
2023-07-09T15:48:20.156Z,26.60
2023-07-09T15:50:47.032Z,26.40
2023-07-09T15:53:14.930Z,25.90
2023-07-09T15:55:41.725Z,25.50
2023-07-09T15:58:16.835Z,25.20
2023-07-09T16:00:45.948Z,25.70
2023-07-09T16:03:22.147Z,25.90
2023-07-09T16:05:49.650Z,25.20
2023-07-09T16:08:16.603Z,25.30
2023-07-09T16:10:43.461Z,25.30
2023-07-09T16:13:23.193Z,25.00
2023-07-09T16:15:50.708Z,24.10
2023-07-09T16:18:18.698Z,24.00
2023-07-09T16:20:45.756Z,24.20
2023-07-09T16:23:19.706Z,24.10
2023-07-09T16:25:48.808Z,23.90
2023-07-09T16:28:19.237Z,22.90
2023-07-09T16:30:47.857Z,23.20
2023-07-09T16:33:14.987Z,21.90
2023-07-09T16:35:41.832Z,22.30
2023-07-09T16:38:12.990Z,22.60
2023-07-09T16:40:40.828Z,21.90
2023-07-09T16:43:15.809Z,22.30
2023-07-09T16:45:42.648Z,22.60
2023-07-09T16:48:25.867Z,22.30
2023-07-09T16:50:54.982Z,22.50
2023-07-09T16:53:23.035Z,22.70
2023-07-09T16:55:51.137Z,23.00
2023-07-09T16:58:27.796Z,23.00
2023-07-09T17:00:54.678Z,22.90
2023-07-09T17:03:21.650Z,22.70
2023-07-09T17:05:48.559Z,22.90
2023-07-09T17:08:15.273Z,23.00
2023-07-09T17:10:42.991Z,21.60
2023-07-09T17:13:25.158Z,21.30
2023-07-09T17:15:52.640Z,20.60
2023-07-09T17:18:25.422Z,21.30
2023-07-09T17:20:54.752Z,21.30
2023-07-09T17:23:21.714Z,22.00
2023-07-09T17:25:48.803Z,20.50
2023-07-09T17:28:18.507Z,20.40
2023-07-09T17:30:45.607Z,20.40
2023-07-09T17:33:12.848Z,20.60
2023-07-09T17:35:40.198Z,20.40
2023-07-09T17:38:07.199Z,20.10
2023-07-09T17:43:10.847Z,20.60
2023-07-09T17:45:37.511Z,20.70
2023-07-09T17:48:15.704Z,21.20
2023-07-09T17:50:45.160Z,21.30
2023-07-09T17:53:26.200Z,21.60
2023-07-09T17:55:53.621Z,22.20
2023-07-09T17:58:28.273Z,22.80
2023-07-09T18:00:59.302Z,23.50
2023-07-09T18:03:26.356Z,23.60
2023-07-09T18:05:53.219Z,24.10
2023-07-09T18:08:20.091Z,24.90
2023-07-09T18:10:48.516Z,25.40
2023-07-09T18:13:18.777Z,25.80
2023-07-09T18:15:46.522Z,26.40
2023-07-09T18:18:14.329Z,27.40
2023-07-09T18:20:42.252Z,27.70
2023-07-09T18:23:09.772Z,28.80
2023-07-09T18:25:39.751Z,30.10
2023-07-09T18:28:11.201Z,30.50
2023-07-09T18:30:38.006Z,31.10
2023-07-09T18:33:06.783Z,31.50
2023-07-09T18:35:34.797Z,31.60
2023-07-09T18:38:10.218Z,32.10
2023-07-09T18:40:40.099Z,33.00
2023-07-09T18:43:30.909Z,34.60
2023-07-09T18:45:59.591Z,35.10
2023-07-09T18:48:29.678Z,35.40
2023-07-09T18:50:58.212Z,35.70
2023-07-09T18:53:26.096Z,36.20
2023-07-09T18:55:54.400Z,36.20
2023-07-09T18:58:27.418Z,36.90
2023-07-09T19:00:55.261Z,37.40
2023-07-09T19:03:27.947Z,37.60
2023-07-09T19:05:55.683Z,37.80
2023-07-09T19:08:25.306Z,38.70
2023-07-09T19:10:52.821Z,38.40
2023-07-09T19:13:21.263Z,38.60
2023-07-09T19:15:49.961Z,39.00
2023-07-09T19:18:27.187Z,39.20
2023-07-09T19:20:57.818Z,39.40
2023-07-09T19:23:25.175Z,39.50
2023-07-09T19:25:53.593Z,40.20
2023-07-09T19:28:22.101Z,40.80
2023-07-09T19:30:50.547Z,40.90
2023-07-09T19:33:31.603Z,41.60
2023-07-09T19:35:58.356Z,42.20
2023-07-09T19:38:25.082Z,42.10
2023-07-09T19:40:51.803Z,42.30
2023-07-09T19:43:18.620Z,42.40
2023-07-09T19:45:50.949Z,42.60
2023-07-09T19:48:28.629Z,43.00
2023-07-09T19:50:55.879Z,43.10
2023-07-09T19:53:28.922Z,43.30
2023-07-09T19:55:57.017Z,43.60
2023-07-09T19:58:24.753Z,43.70
2023-07-09T20:00:52.558Z,44.40
2023-07-09T20:03:29.086Z,45.20
2023-07-09T20:05:57.317Z,45.80
2023-07-09T20:08:24.906Z,46.50
2023-07-09T20:10:58.353Z,46.70
2023-07-09T20:13:34.457Z,46.50
2023-07-09T20:16:01.984Z,46.70
2023-07-09T20:18:29.185Z,46.80
2023-07-09T20:21:00.257Z,47.10
2023-07-09T20:23:29.631Z,47.30
2023-07-09T20:25:56.532Z,47.50
2023-07-09T20:28:25.642Z,47.70
2023-07-09T20:30:54.607Z,48.50
2023-07-09T20:33:22.032Z,48.80
2023-07-09T20:35:50.595Z,48.90
2023-07-09T20:38:26.734Z,48.90
2023-07-09T20:40:54.548Z,48.90
2023-07-09T20:43:28.374Z,48.80
2023-07-09T20:45:55.749Z,48.30
2023-07-09T20:48:24.974Z,48.50
2023-07-09T20:50:52.502Z,49.70
2023-07-09T20:53:20.502Z,49.90
2023-07-09T20:55:48.655Z,50.30
2023-07-09T20:58:20.537Z,50.50
2023-07-09T21:00:49.057Z,50.80
2023-07-09T21:03:27.620Z,50.70
2023-07-09T21:05:55.040Z,51.10
2023-07-09T21:08:25.552Z,50.80
2023-07-09T21:10:52.555Z,51.30
2023-07-09T21:13:21.856Z,51.50
2023-07-09T21:15:56.981Z,52.00
2023-07-09T21:18:32.420Z,52.50
2023-07-09T21:20:59.313Z,52.50
2023-07-09T21:23:26.165Z,52.60
2023-07-09T21:25:52.989Z,52.50
2023-07-09T21:28:20.989Z,52.40
2023-07-09T21:30:47.785Z,53.20
2023-07-09T21:33:28.762Z,53.80
2023-07-09T21:35:59.300Z,53.80
2023-07-09T21:38:26.248Z,53.70
2023-07-09T21:40:54.535Z,53.90
2023-07-09T21:43:21.807Z,54.50
2023-07-09T21:45:55.949Z,54.50
2023-07-09T21:48:27.811Z,54.40
2023-07-09T21:50:55.224Z,54.40
2023-07-09T21:53:45.925Z,54.20
2023-07-09T21:56:14.307Z,54.00
2023-07-09T21:58:41.294Z,54.70
2023-07-09T22:01:19.153Z,54.80
2023-07-09T22:03:46.627Z,55.10
2023-07-09T22:06:13.799Z,55.20
2023-07-09T22:08:46.446Z,55.50
2023-07-09T22:11:34.716Z,55.50
2023-07-09T22:14:01.477Z,55.10
2023-07-09T22:16:28.514Z,54.90
2023-07-09T22:18:55.692Z,54.90
2023-07-09T22:21:22.736Z,55.00
2023-07-09T22:23:50.438Z,54.90
2023-07-09T22:26:18.948Z,55.30
2023-07-09T22:28:45.751Z,55.20
2023-07-09T22:31:15.510Z,55.50
2023-07-09T22:33:43.219Z,56.00
2023-07-09T22:36:13.604Z,56.30
2023-07-09T22:38:40.509Z,56.60
2023-07-09T22:41:07.689Z,56.40
2023-07-09T22:43:34.816Z,56.30
2023-07-09T22:46:02.035Z,56.10
2023-07-09T22:48:29.864Z,56.30
2023-07-09T22:50:56.799Z,56.50
2023-07-09T22:53:24.485Z,56.90
2023-07-09T22:55:53.037Z,56.90
2023-07-09T22:58:21.274Z,57.00
2023-07-09T23:00:55.017Z,56.90
2023-07-09T23:03:28.111Z,56.60
2023-07-09T23:05:54.985Z,56.70
2023-07-09T23:08:29.828Z,57.20
2023-07-09T23:11:02.781Z,57.40
2023-07-09T23:13:34.633Z,57.50
2023-07-09T23:16:03.308Z,57.60
2023-07-09T23:18:34.637Z,57.20
2023-07-09T23:21:01.440Z,57.80
2023-07-09T23:23:28.172Z,58.50
2023-07-09T23:25:57.689Z,58.60
2023-07-09T23:28:25.210Z,59.00
2023-07-09T23:30:53.004Z,59.00
2023-07-09T23:33:27.129Z,59.00
2023-07-09T23:35:57.431Z,58.60
2023-07-09T23:38:27.745Z,58.40
2023-07-09T23:40:59.164Z,58.30
2023-07-09T23:43:41.625Z,57.80
2023-07-09T23:46:12.474Z,58.30
2023-07-09T23:48:42.220Z,58.40
2023-07-09T23:51:11.714Z,58.30
2023-07-09T23:53:39.117Z,58.00
2023-07-09T23:56:13.549Z,58.30
2023-07-09T23:58:41.421Z,58.50
